Time;durP1;ratioP1;P1;durP2;ratioP2;P2;SDS_P1;SDS_P2;PMS_P1;PMS_P2;Temp;Humidity;BMP_temperature;BMP_pressure;BME280_temperature;BME280_humidity;BME280_pressure;Samples;Min_cycle;Max_cycle;Signal;HPM_P1;HPM_P2
2024/02/28 00:01:26;;;;;;;;;;;;;;;;;;6361277;27;19968;-82
2024/02/28 00:04:26;;;;;;;;;;;;;;;;;;6365761;27;19927;-82
2024/02/28 00:07:26;;;;;;;;;;;;;;;;;;6352861;27;19962;-82
2024/02/28 00:10:26;;;;;;;;;;;;;;;;;;6359275;27;19950;-82
2024/02/28 00:13:26;;;;;;;;;;;;;;;;;;6349596;27;19927;-82
2024/02/28 00:16:27;;;;;;;;;;;;;;;;;;6355078;27;20011;-82
2024/02/28 00:19:27;;;;;;;;;;;;;;;;;;6358199;27;19919;-82
2024/02/28 00:22:27;;;;;;;;;;;;;;;;;;6359354;27;19955;-82
2024/02/28 00:25:27;;;;;;;;;;;;;;;;;;6359550;27;19962;-82
2024/02/28 00:28:27;;;;;;;;;;;;;;;;;;6349692;27;20015;-82
2024/02/28 00:31:27;;;;;;;;;;;;;;;;;;6358108;27;20017;-82
2024/02/28 00:34:28;;;;;;;;;;;;;;;;;;6360182;27;20447;-82
2024/02/28 00:37:28;;;;;;;;;;;;;;;;;;6363783;27;19911;-82
2024/02/28 00:40:28;;;;;;;;;;;;;;;;;;6353389;27;19926;-82
2024/02/28 00:43:28;;;;;;;;;;;;;;;;;;6356494;27;19994;-82
2024/02/28 00:46:28;;;;;;;;;;;;;;;;;;6357801;27;20336;-82
2024/02/28 00:49:28;;;;;;;;;;;;;;;;;;6354092;27;20386;-82
2024/02/28 00:52:29;;;;;;;;;;;;;;;;;;6358600;27;20014;-80
2024/02/28 00:55:29;;;;;;;;;;;;;;;;;;6357477;27;20093;-80
2024/02/28 00:58:29;;;;;;;;;;;;;;;;;;6352506;27;19912;-81
2024/02/28 01:01:30;;;;;;;;;;;;;;;;;;6348296;27;19969;-79
2024/02/28 01:04:30;;;;;;;;;;;;;;;;;;6355655;27;19922;-81
2024/02/28 01:07:30;;;;;;;;;;;;;;;;;;6353180;27;19919;-80
2024/02/28 01:10:30;;;;;;;;;;;;;;;;;;6361996;27;19911;-80
2024/02/28 01:13:30;;;;;;;;;;;;;;;;;;6343877;27;19920;-80
2024/02/28 01:16:30;;;;;;;;;;;;;;;;;;6330589;28;19915;-80
2024/02/28 01:19:31;;;;;;;;;;;;;;;;;;6312292;28;20186;-80
2024/02/28 01:22:31;;;;;;;;;;;;;;;;;;6309980;28;20004;-80
2024/02/28 01:25:34;;;;;;;;;;;;;;;;;;6329086;28;20267;-80
2024/02/28 01:28:34;;;;;;;;;;;;;;;;;;6330305;28;19916;-80
2024/02/28 01:31:35;;;;;;;;;;;;;;;;;;6327232;28;19928;-81
2024/02/28 01:34:35;;;;;;;;;;;;;;;;;;6331163;28;19938;-80
2024/02/28 01:37:35;;;;;;;;;;;;;;;;;;6335812;28;20003;-80
2024/02/28 01:40:35;;;;;;;;;;;;;;;;;;6304783;28;19916;-80
2024/02/28 01:43:35;;;;;;;;;;;;;;;;;;6311740;28;20280;-80
2024/02/28 01:46:35;;;;;;;;;;;;;;;;;;6308278;28;20265;-80
2024/02/28 01:49:35;;;;;;;;;;;;;;;;;;6331919;28;19923;-81
2024/02/28 01:52:36;;;;;;;;;;;;;;;;;;6335991;28;20165;-80
2024/02/28 01:55:36;;;;;;;;;;;;;;;;;;6307876;28;20417;-81
2024/02/28 01:58:36;;;;;;;;;;;;;;;;;;6325624;28;19940;-80
2024/02/28 02:01:36;;;;;;;;;;;;;;;;;;6324993;28;19916;-80
2024/02/28 02:04:36;;;;;;;;;;;;;;;;;;6326176;28;20623;-80
2024/02/28 02:07:36;;;;;;;;;;;;;;;;;;6332664;28;20397;-79
2024/02/28 02:10:37;;;;;;;;;;;;;;;;;;6330806;28;19997;-80
2024/02/28 02:13:37;;;;;;;;;;;;;;;;;;6326076;28;20431;-80
2024/02/28 02:16:37;;;;;;;;;;;;;;;;;;6331667;28;19920;-80
2024/02/28 02:19:37;;;;;;;;;;;;;;;;;;6330516;28;19953;-80
2024/02/28 02:22:40;;;;;;;;;;;;;;;;;;6325616;28;19923;-80
2024/02/28 02:25:40;;;;;;;;;;;;;;;;;;6305948;28;19941;-80
2024/02/28 02:28:40;;;;;;;;;;;;;;;;;;6308809;28;20500;-80
2024/02/28 02:31:41;;;;;;;;;;;;;;;;;;6337371;28;19911;-80
2024/02/28 02:34:41;;;;;;;;;;;;;;;;;;6309083;28;19916;-80
2024/02/28 02:37:41;;;;;;;;;;;;;;;;;;6330004;28;20283;-80
2024/02/28 02:40:41;;;;;;;;;;;;;;;;;;6337717;28;19908;-79
2024/02/28 02:43:41;;;;;;;;;;;;;;;;;;6338201;28;19920;-80
2024/02/28 02:46:41;;;;;;;;;;;;;;;;;;6303361;28;19924;-80
2024/02/28 02:49:41;;;;;;;;;;;;;;;;;;6325685;28;19912;-80
2024/02/28 02:52:41;;;;;;;;;;;;;;;;;;6325275;28;19911;-80
2024/02/28 02:55:42;;;;;;;;;;;;;;;;;;6332884;28;19912;-80
2024/02/28 02:58:42;;;;;;;;;;;;;;;;;;6336215;28;19912;-80
2024/02/28 03:01:42;;;;;;;;;;;;;;;;;;6326607;28;19920;-80
2024/02/28 03:04:42;;;;;;;;;;;;;;;;;;6327517;28;19922;-80
2024/02/28 03:07:42;;;;;;;;;;;;;;;;;;6327422;28;19908;-80
2024/02/28 03:10:42;;;;;;;;;;;;;;;;;;6339327;28;20308;-80
2024/02/28 03:13:43;;;;;;;;;;;;;;;;;;6347940;28;20052;-80
2024/02/28 03:16:43;;;;;;;;;;;;;;;;;;6333522;28;19920;-80
2024/02/28 03:19:43;;;;;;;;;;;;;;;;;;6308734;28;20280;-81
2024/02/28 03:22:43;;;;;;;;;;;;;;;;;;6308577;28;19912;-82
2024/02/28 03:25:43;;;;;;;;;;;;;;;;;;6324539;28;20011;-81
2024/02/28 03:28:43;;;;;;;;;;;;;;;;;;6335026;28;20006;-81
2024/02/28 03:31:43;;;;;;;;;;;;;;;;;;6316594;28;19919;-81
2024/02/28 03:34:44;;;;;;;;;;;;;;;;;;6308590;28;19919;-82
2024/02/28 03:37:44;;;;;;;;;;;;;;;;;;6335791;28;20002;-82
2024/02/28 03:40:44;;;;;;;;;;;;;;;;;;6327045;28;19913;-82
2024/02/28 03:43:44;;;;;;;;;;;;;;;;;;6326337;28;19916;-82
2024/02/28 03:46:44;;;;;;;;;;;;;;;;;;6325606;28;19913;-82
2024/02/28 03:49:44;;;;;;;;;;;;;;;;;;6311976;28;19911;-81
2024/02/28 03:52:44;;;;;;;;;;;;;;;;;;6333349;28;19966;-81
2024/02/28 03:55:44;;;;;;;;;;;;;;;;;;6329083;28;19915;-81
2024/02/28 03:58:45;;;;;;;;;;;;;;;;;;6307609;28;19919;-82
2024/02/28 04:01:45;;;;;;;;;;;;;;;;;;6307368;28;19920;-82
2024/02/28 04:04:45;;;;;;;;;;;;;;;;;;6308062;28;19912;-83
2024/02/28 04:07:45;;;;;;;;;;;;;;;;;;6327640;28;19957;-82
2024/02/28 04:10:45;;;;;;;;;;;;;;;;;;6338739;28;19912;-82
2024/02/28 04:13:45;;;;;;;;;;;;;;;;;;6340483;28;20253;-82
2024/02/28 04:16:47;;;;;;;;;;;;;;;;;;6351613;28;19911;-81
2024/02/28 04:19:47;;;;;;;;;;;;;;;;;;6347042;28;19985;-82
2024/02/28 04:22:47;;;;;;;;;;;;;;;;;;6347722;28;19926;-81
2024/02/28 04:25:47;;;;;;;;;;;;;;;;;;6346441;28;19931;-82
2024/02/28 04:28:47;;;;;;;;;;;;;;;;;;6312368;28;19919;-82
2024/02/28 04:31:47;;;;;;;;;;;;;;;;;;6327175;28;19923;-81
2024/02/28 04:34:47;;;;;;;;;;;;;;;;;;6326154;28;19920;-81
2024/02/28 04:37:48;;;;;;;;;;;;;;;;;;6325124;28;19912;-80
2024/02/28 04:40:49;;;;;;;;;;;;;;;;;;6323746;28;19912;-80
2024/02/28 04:43:49;;;;;;;;;;;;;;;;;;6310900;28;19947;-79
2024/02/28 04:46:49;;;;;;;;;;;;;;;;;;6326900;28;19922;-79
2024/02/28 04:49:50;;;;;;;;;;;;;;;;;;6326947;28;19927;-79
2024/02/28 04:52:50;;;;;;;;;;;;;;;;;;6349397;28;19912;-79
2024/02/28 04:55:50;;;;;;;;;;;;;;;;;;6330313;28;20010;-79
2024/02/28 04:58:50;;;;;;;;;;;;;;;;;;6347478;28;20044;-79
2024/02/28 05:01:51;;;;;;;;;;;;;;;;;;6327144;28;19947;-79
2024/02/28 05:04:52;;;;;;;;;;;;;;;;;;6323867;28;19969;-79
2024/02/28 05:07:52;;;;;;;;;;;;;;;;;;6338184;28;20293;-79
2024/02/28 05:10:52;;;;;;;;;;;;;;;;;;6324300;28;20340;-80
2024/02/28 05:13:52;;;;;;;;;;;;;;;;;;6316374;28;19920;-79
2024/02/28 05:16:52;;;;;;;;;;;;;;;;;;6344910;28;20386;-79
2024/02/28 05:19:52;;;;;;;;;;;;;;;;;;6326248;28;20359;-81
2024/02/28 05:22:52;;;;;;;;;;;;;;;;;;6346985;28;19967;-78
2024/02/28 05:25:53;;;;;;;;;;;;;;;;;;6348701;28;19943;-78
2024/02/28 05:28:53;;;;;;;;;;;;;;;;;;6348931;28;19914;-78
2024/02/28 05:31:53;;;;;;;;;;;;;;;;;;6344061;28;19918;-78
2024/02/28 05:34:53;;;;;;;;;;;;;;;;;;6348910;28;19989;-78
2024/02/28 05:37:54;;;;;;;;;;;;;;;;;;6325427;28;19919;-77
2024/02/28 05:40:54;;;;;;;;;;;;;;;;;;6328614;28;20395;-77
2024/02/28 05:43:55;;;;;;;;;;;;;;;;;;6337334;28;19959;-77
2024/02/28 05:46:55;;;;;;;;;;;;;;;;;;6341916;28;19922;-78
2024/02/28 05:49:56;;;;;;;;;;;;;;;;;;6328232;28;20312;-78
2024/02/28 05:52:56;;;;;;;;;;;;;;;;;;6329099;28;19911;-78
2024/02/28 05:55:56;;;;;;;;;;;;;;;;;;6350237;28;19914;-77
2024/02/28 05:58:57;;;;;;;;;;;;;;;;;;6336291;28;19948;-77
2024/02/28 06:01:57;;;;;;;;;;;;;;;;;;6330210;28;19916;-77
2024/02/28 06:04:57;;;;;;;;;;;;;;;;;;6324248;28;19916;-77
2024/02/28 06:07:57;;;;;;;;;;;;;;;;;;6324702;28;19908;-78
2024/02/28 06:10:57;;;;;;;;;;;;;;;;;;6323224;28;19931;-78
2024/02/28 06:13:57;;;;;;;;;;;;;;;;;;6333994;28;19968;-76
2024/02/28 06:16:58;;;;;;;;;;;;;;;;;;6334285;28;19952;-76
2024/02/28 06:19:58;;;;;;;;;;;;;;;;;;6346867;28;20311;-80
2024/02/28 06:22:58;;;;;;;;;;;;;;;;;;6348859;28;20309;-79
2024/02/28 06:25:58;;;;;;;;;;;;;;;;;;6348120;28;20641;-79
2024/02/28 06:29:01;;;;;;;;;;;;;;;;;;6344739;28;19953;-79
2024/02/28 06:32:01;;;;;;;;;;;;;;;;;;6307394;28;19912;-80
2024/02/28 06:35:01;;;;;;;;;;;;;;;;;;6330037;28;19919;-80
2024/02/28 06:38:02;;;;;;;;;;;;;;;;;;6323300;28;19919;-80
2024/02/28 06:41:02;;;;;;;;;;;;;;;;;;6328182;28;20324;-79
2024/02/28 06:44:02;;;;;;;;;;;;;;;;;;6318873;28;20013;-79
2024/02/28 06:47:02;;;;;;;;;;;;;;;;;;6329640;28;19919;-80
2024/02/28 06:50:02;;;;;;;;;;;;;;;;;;6339763;28;19916;-80
2024/02/28 06:53:03;;;;;;;;;;;;;;;;;;6322996;28;19973;-80
2024/02/28 06:56:03;;;;;;;;;;;;;;;;;;6350509;28;20389;-79
2024/02/28 06:59:04;;;;;;;;;;;;;;;;;;6323217;28;19920;-79
2024/02/28 07:02:04;;;;;;;;;;;;;;;;;;6341980;28;20288;-80
2024/02/28 07:05:06;;;;;;;;;;;;;;;;;;6336312;28;19915;-80
2024/02/28 07:08:06;;;;;;;;;;;;;;;;;;6325697;28;19912;-80
2024/02/28 07:11:06;;;;;;;;;;;;;;;;;;6335937;28;19958;-80
2024/02/28 07:14:06;;;;;;;;;;;;;;;;;;6355912;27;19919;-79
2024/02/28 07:17:07;;;;;;;;;;;;;;;;;;6359779;27;19915;-79
2024/02/28 07:20:08;;;;;;;;;;;;;;;;;;6357277;27;19920;-75
2024/02/28 07:23:08;;;;;;;;;;;;;;;;;;6358860;27;19927;-79
2024/02/28 07:26:08;;;;;;;;;;;;;;;;;;6361818;27;20010;-80
2024/02/28 07:29:08;;;;;;;;;;;;;;;;;;6359971;27;19915;-80
2024/02/28 07:32:09;;;;;;;;;;;;;;;;;;6367269;27;19911;-79
2024/02/28 07:35:09;;;;;;;;;;;;;;;;;;6367473;27;19919;-79
2024/02/28 07:38:09;;;;;;;;;;;;;;;;;;6351601;28;19908;-80
2024/02/28 07:41:09;;;;;;;;;;;;;;;;;;6350934;28;20317;-79
2024/02/28 07:44:10;;;;;;;;;;;;;;;;;;6354031;27;20002;-80
2024/02/28 07:47:10;;;;;;;;;;;;;;;;;;6350191;28;19916;-80
2024/02/28 07:50:11;;;;;;;;;;;;;;;;;;6352199;27;19934;-80
2024/02/28 07:53:12;;;;;;;;;;;;;;;;;;6368765;27;19912;-80
2024/02/28 07:56:12;;;;;;;;;;;;;;;;;;6377211;27;19990;-80
2024/02/28 07:59:12;;;;;;;;;;;;;;;;;;6353611;27;19911;-80
2024/02/28 08:02:12;;;;;;;;;;;;;;;;;;6360502;27;19926;-82
2024/02/28 08:05:12;;;;;;;;;;;;;;;;;;6359666;27;19922;-83
2024/02/28 08:08:12;;;;;;;;;;;;;;;;;;6358379;27;20006;-82
2024/02/28 08:11:13;;;;;;;;;;;;;;;;;;6351873;27;20253;-83
2024/02/28 08:14:13;;;;;;;;;;;;;;;;;;6348566;27;20265;-82
2024/02/28 08:17:13;;;;;;;;;;;;;;;;;;6358533;27;20010;-83
2024/02/28 08:20:14;;;;;;;;;;;;;;;;;;6375819;27;19973;-83
2024/02/28 08:23:14;;;;;;;;;;;;;;;;;;6375389;27;20352;-83
2024/02/28 08:26:15;;;;;;;;;;;;;;;;;;6372048;27;20537;-81
2024/02/28 08:29:15;;;;;;;;;;;;;;;;;;6366448;27;20352;-81
2024/02/28 08:32:15;;;;;;;;;;;;;;;;;;6350609;28;20002;-82
2024/02/28 08:35:15;;;;;;;;;;;;;;;;;;6371511;27;19911;-82
2024/02/28 08:38:15;;;;;;;;;;;;;;;;;;6361697;27;19961;-82
2024/02/28 08:41:17;;;;;;;;;;;;;;;;;;6369380;27;19911;-81
2024/02/28 08:44:17;;;;;;;;;;;;;;;;;;6370861;27;19923;-81
2024/02/28 08:47:19;;;;;;;;;;;;;;;;;;6363808;27;20352;-82
2024/02/28 08:50:19;;;;;;;;;;;;;;;;;;6376442;27;19998;-81
2024/02/28 08:53:19;;;;;;;;;;;;;;;;;;6357676;27;19918;-81
2024/02/28 08:56:19;;;;;;;;;;;;;;;;;;6351468;27;19916;-81
2024/02/28 08:59:20;;;;;;;;;;;;;;;;;;6360527;27;19911;-81
2024/02/28 09:02:20;;;;;;;;;;;;;;;;;;6363949;27;19911;-81
2024/02/28 09:05:21;;;;;;;;;;;;;;;;;;6351666;27;20386;-80
2024/02/28 09:08:21;;;;;;;;;;;;;;;;;;6351338;28;19951;-81
2024/02/28 09:11:21;;;;;;;;;;;;;;;;;;6351476;28;19925;-80
2024/02/28 09:14:21;;;;;;;;;;;;;;;;;;6338227;28;19920;-78
2024/02/28 09:17:22;;;;;;;;;;;;;;;;;;6322567;28;19912;-78
2024/02/28 09:20:22;;;;;;;;;;;;;;;;;;6328522;28;19912;-78
2024/02/28 09:23:22;;;;;;;;;;;;;;;;;;6350468;28;20019;-79
2024/02/28 09:26:22;;;;;;;;;;;;;;;;;;6349791;28;19964;-77
2024/02/28 09:29:22;;;;;;;;;;;;;;;;;;6335285;28;19912;-78
2024/02/28 09:32:23;;;;;;;;;;;;;;;;;;6322968;28;19912;-78
2024/02/28 09:35:23;;;;;;;;;;;;;;;;;;6310925;28;19946;-78
2024/02/28 09:38:23;;;;;;;;;;;;;;;;;;6328293;28;20379;-78
2024/02/28 09:41:26;;;;;;;;;;;;;;;;;;6311600;28;20352;-78
2024/02/28 09:44:26;;;;;;;;;;;;;;;;;;6333137;28;19916;-78
2024/02/28 09:47:26;;;;;;;;;;;;;;;;;;6345328;28;19957;-78
2024/02/28 09:50:27;;;;;;;;;;;;;;;;;;6325061;28;19918;-79
2024/02/28 09:53:27;;;;;;;;;;;;;;;;;;6329472;28;20003;-78
2024/02/28 09:56:27;;;;;;;;;;;;;;;;;;6325507;28;20053;-78
2024/02/28 09:59:27;;;;;;;;;;;;;;;;;;6333572;28;19915;-78
2024/02/28 10:02:28;;;;;;;;;;;;;;;;;;6341752;28;19927;-77
2024/02/28 10:05:28;;;;;;;;;;;;;;;;;;6341127;28;19943;-77
2024/02/28 10:08:29;;;;;;;;;;;;;;;;;;6335298;28;19927;-78
2024/02/28 10:11:29;;;;;;;;;;;;;;;;;;6334968;28;19919;-77
2024/02/28 10:14:29;;;;;;;;;;;;;;;;;;6343948;28;19926;-78
2024/02/28 10:17:29;;;;;;;;;;;;;;;;;;6330473;28;19937;-78
2024/02/28 10:20:29;;;;;;;;;;;;;;;;;;6327097;28;19964;-78
2024/02/28 10:23:29;;;;;;;;;;;;;;;;;;6333274;28;19923;-80
2024/02/28 10:26:32;;;;;;;;;;;;;;;;;;6329123;28;19943;-80
2024/02/28 10:29:32;;;;;;;;;;;;;;;;;;6326416;28;19962;-80
2024/02/28 10:32:35;;;;;;;;;;;;;;;;;;6333144;28;19912;-80
2024/02/28 10:35:35;;;;;;;;;;;;;;;;;;6314364;28;20275;-80
2024/02/28 10:38:38;;;;;;;;;;;;;;;;;;6331239;28;20387;-81
2024/02/28 10:41:38;;;;;;;;;;;;;;;;;;6333891;28;19916;-79
2024/02/28 10:44:39;;;;;;;;;;;;;;;;;;6338106;28;19958;-82
2024/02/28 10:47:39;;;;;;;;;;;;;;;;;;6339426;28;20306;-83
2024/02/28 10:50:39;;;;;;;;;;;;;;;;;;6329435;28;20326;-83
2024/02/28 10:53:39;;;;;;;;;;;;;;;;;;6323188;28;20387;-84
2024/02/28 10:56:39;;;;;;;;;;;;;;;;;;6329163;28;20000;-82
2024/02/28 10:59:39;;;;;;;;;;;;;;;;;;6339990;28;20032;-81
2024/02/28 11:02:40;;;;;;;;;;;;;;;;;;6328944;28;19912;-82
2024/02/28 11:05:43;;;;;;;;;;;;;;;;;;6309790;28;19916;-79
2024/02/28 11:08:43;;;;;;;;;;;;;;;;;;6322353;28;20373;-80
2024/02/28 11:11:43;;;;;;;;;;;;;;;;;;6338821;28;20052;-83
2024/02/28 11:14:43;;;;;;;;;;;;;;;;;;6379502;27;19958;-79
2024/02/28 11:17:43;;;;;;;;;;;;;;;;;;6377133;27;20010;-82
2024/02/28 11:20:44;;;;;;;;;;;;;;;;;;6389047;27;19954;-82
2024/02/28 11:23:44;;;;;;;;;;;;;;;;;;6359212;27;19951;-83
2024/02/28 11:26:44;;;;;;;;;;;;;;;;;;6359299;27;20245;-82
2024/02/28 11:29:46;;;;;;;;;;;;;;;;;;6363172;27;20279;-87
2024/02/28 11:32:46;;;;;;;;;;;;;;;;;;6391156;27;21649;-78
2024/02/28 11:35:46;;;;;;;;;;;;;;;;;;6380279;27;19907;-80
2024/02/28 11:38:47;;;;;;;;;;;;;;;;;;6388532;27;19935;-79
2024/02/28 11:41:48;;;;;;;;;;;;;;;;;;6401987;27;19922;-80
2024/02/28 11:44:48;;;;;;;;;;;;;;;;;;6373672;27;19972;-78
2024/02/28 11:47:48;;;;;;;;;;;;;;;;;;6402792;27;19959;-78
2024/02/28 11:50:49;;;;;;;;;;;;;;;;;;6389257;27;19960;-78
2024/02/28 11:53:49;;;;;;;;;;;;;;;;;;6376414;27;19959;-78
2024/02/28 11:56:49;;;;;;;;;;;;;;;;;;6358549;27;20384;-78
2024/02/28 11:59:49;;;;;;;;;;;;;;;;;;6368724;27;20283;-79
2024/02/28 12:02:49;;;;;;;;;;;;;;;;;;6375970;27;20276;-79
2024/02/28 12:05:49;;;;;;;;;;;;;;;;;;6376111;27;19934;-79
2024/02/28 12:08:50;;;;;;;;;;;;;;;;;;6364701;27;19908;-78
2024/02/28 12:11:50;;;;;;;;;;;;;;;;;;6395341;27;19918;-77
2024/02/28 12:14:50;;;;;;;;;;;;;;;;;;6384539;27;19931;-79
2024/02/28 12:17:50;;;;;;;;;;;;;;;;;;6378337;27;19911;-79
2024/02/28 12:20:50;;;;;;;;;;;;;;;;;;6381006;27;19911;-78
2024/02/28 12:23:50;;;;;;;;;;;;;;;;;;6376381;27;19976;-78
2024/02/28 12:26:50;;;;;;;;;;;;;;;;;;6392073;27;19964;-78
2024/02/28 12:29:51;;;;;;;;;;;;;;;;;;6376664;27;19911;-79
2024/02/28 12:32:51;;;;;;;;;;;;;;;;;;6384131;27;19971;-79
2024/02/28 12:35:52;;;;;;;;;;;;;;;;;;6378048;27;19911;-79
2024/02/28 12:38:52;;;;;;;;;;;;;;;;;;6371147;27;19911;-79
2024/02/28 12:41:52;;;;;;;;;;;;;;;;;;6384941;27;19915;-81
2024/02/28 12:44:52;;;;;;;;;;;;;;;;;;6356691;27;19933;-81
2024/02/28 12:47:53;;;;;;;;;;;;;;;;;;6352845;27;19911;-80
2024/02/28 12:50:54;;;;;;;;;;;;;;;;;;6382101;27;19907;-79
2024/02/28 12:53:57;;;;;;;;;;;;;;;;;;6377993;27;19934;-80
2024/02/28 12:56:57;;;;;;;;;;;;;;;;;;6376200;27;19912;-80
2024/02/28 12:59:57;;;;;;;;;;;;;;;;;;6378962;27;19915;-79
2024/02/28 13:02:57;;;;;;;;;;;;;;;;;;6383810;27;19923;-79
2024/02/28 13:05:58;;;;;;;;;;;;;;;;;;6391207;27;19915;-79
2024/02/28 13:08:58;;;;;;;;;;;;;;;;;;6375395;27;19915;-79
2024/02/28 13:11:58;;;;;;;;;;;;;;;;;;6384921;27;19999;-79
2024/02/28 13:14:58;;;;;;;;;;;;;;;;;;6336163;27;19971;-79
2024/02/28 13:17:58;;;;;;;;;;;;;;;;;;6324563;28;19960;-79
2024/02/28 13:20:58;;;;;;;;;;;;;;;;;;6324140;28;19951;-79
2024/02/28 13:23:58;;;;;;;;;;;;;;;;;;6324130;28;19938;-79
2024/02/28 13:26:59;;;;;;;;;;;;;;;;;;6324340;28;19939;-79
2024/02/28 13:29:59;;;;;;;;;;;;;;;;;;6322659;28;19916;-81
2024/02/28 13:32:59;;;;;;;;;;;;;;;;;;6330183;28;19912;-79
2024/02/28 13:35:59;;;;;;;;;;;;;;;;;;6325777;28;20357;-79
2024/02/28 13:39:00;;;;;;;;;;;;;;;;;;6346405;28;20372;-79
2024/02/28 13:42:00;;;;;;;;;;;;;;;;;;6346727;28;20359;-79
2024/02/28 13:45:00;;;;;;;;;;;;;;;;;;6309416;28;19919;-79
2024/02/28 13:48:00;;;;;;;;;;;;;;;;;;6344412;28;20364;-81
2024/02/28 13:51:01;;;;;;;;;;;;;;;;;;6310430;28;20368;-79
2024/02/28 13:54:02;;;;;;;;;;;;;;;;;;6323751;28;19915;-81
2024/02/28 13:57:03;;;;;;;;;;;;;;;;;;6329919;28;19908;-81
2024/02/28 14:00:06;;;;;;;;;;;;;;;;;;6330932;28;19912;-78
2024/02/28 14:03:06;;;;;;;;;;;;;;;;;;6329647;28;19962;-78
2024/02/28 14:06:06;;;;;;;;;;;;;;;;;;6320719;28;19916;-77
2024/02/28 14:09:06;;;;;;;;;;;;;;;;;;6339049;28;19911;-77
2024/02/28 14:12:07;;;;;;;;;;;;;;;;;;6329940;28;20007;-78
2024/02/28 14:15:07;;;;;;;;;;;;;;;;;;6306931;28;20010;-78
2024/02/28 14:18:08;;;;;;;;;;;;;;;;;;6304360;28;20002;-77
2024/02/28 14:21:08;;;;;;;;;;;;;;;;;;6321408;28;19916;-77
2024/02/28 14:24:08;;;;;;;;;;;;;;;;;;6306761;28;19926;-77
2024/02/28 14:27:09;;;;;;;;;;;;;;;;;;6320379;28;19916;-77
2024/02/28 14:30:09;;;;;;;;;;;;;;;;;;6301768;28;20535;-77
2024/02/28 14:33:09;;;;;;;;;;;;;;;;;;6296882;28;20369;-77
2024/02/28 14:36:09;;;;;;;;;;;;;;;;;;6296960;28;20014;-77
2024/02/28 14:39:14;;;;;;;;;;;;;;;;;;6301937;28;20011;-78
2024/02/28 14:42:15;;;;;;;;;;;;;;;;;;6315533;28;19916;-78
2024/02/28 14:45:15;;;;;;;;;;;;;;;;;;6306051;28;19939;-78
2024/02/28 14:48:15;;;;;;;;;;;;;;;;;;6303399;28;19912;-78
2024/02/28 14:51:15;;;;;;;;;;;;;;;;;;6321918;28;20365;-77
2024/02/28 14:54:15;;;;;;;;;;;;;;;;;;6311064;28;20368;-78
2024/02/28 14:57:16;;;;;;;;;;;;;;;;;;6303274;28;19962;-78
2024/02/28 15:00:16;;;;;;;;;;;;;;;;;;6307085;28;19996;-78
2024/02/28 15:03:16;;;;;;;;;;;;;;;;;;6313982;28;20395;-77
2024/02/28 15:06:16;;;;;;;;;;;;;;;;;;6311032;28;19923;-78
2024/02/28 15:09:19;;;;;;;;;;;;;;;;;;6307384;28;19912;-80
2024/02/28 15:12:19;;;;;;;;;;;;;;;;;;6313359;28;19919;-76
2024/02/28 15:15:19;;;;;;;;;;;;;;;;;;6333857;28;19925;-78
2024/02/28 15:18:19;;;;;;;;;;;;;;;;;;6330651;28;19916;-78
2024/02/28 15:21:20;;;;;;;;;;;;;;;;;;6346719;28;20000;-77
2024/02/28 15:24:20;;;;;;;;;;;;;;;;;;6347315;28;19912;-79
2024/02/28 15:27:21;;;;;;;;;;;;;;;;;;6331381;28;19923;-78
2024/02/28 15:30:21;;;;;;;;;;;;;;;;;;6309163;28;19930;-77
2024/02/28 15:33:21;;;;;;;;;;;;;;;;;;6321104;28;19908;-78
2024/02/28 15:36:21;;;;;;;;;;;;;;;;;;6336697;28;19914;-78
2024/02/28 15:39:21;;;;;;;;;;;;;;;;;;6346727;28;20387;-77
2024/02/28 15:42:22;;;;;;;;;;;;;;;;;;6346106;28;19912;-78
2024/02/28 15:45:22;;;;;;;;;;;;;;;;;;6328720;28;19923;-78
2024/02/28 15:48:22;;;;;;;;;;;;;;;;;;6349868;28;19915;-78
2024/02/28 15:51:22;;;;;;;;;;;;;;;;;;6333379;28;19915;-77
2024/02/28 15:54:22;;;;;;;;;;;;;;;;;;6332927;28;19965;-77
2024/02/28 15:57:22;;;;;;;;;;;;;;;;;;6347329;28;19908;-77
2024/02/28 16:00:22;;;;;;;;;;;;;;;;;;6324369;28;19922;-77
2024/02/28 16:03:22;;;;;;;;;;;;;;;;;;6325141;28;19922;-79
2024/02/28 16:06:24;;;;;;;;;;;;;;;;;;6334373;28;20027;-80
2024/02/28 16:09:25;;;;;;;;;;;;;;;;;;6331864;28;20436;-77
2024/02/28 16:12:27;;;;;;;;;;;;;;;;;;6345084;28;19912;-77
2024/02/28 16:15:27;;;;;;;;;;;;;;;;;;6329670;28;20357;-78
2024/02/28 16:18:28;;;;;;;;;;;;;;;;;;6335313;28;19953;-77
2024/02/28 16:21:28;;;;;;;;;;;;;;;;;;6343118;28;19974;-78
2024/02/28 16:24:29;;;;;;;;;;;;;;;;;;6345573;28;19920;-77
2024/02/28 16:27:29;;;;;;;;;;;;;;;;;;6350455;28;19911;-80
2024/02/28 16:30:29;;;;;;;;;;;;;;;;;;6339522;28;19918;-77
2024/02/28 16:33:29;;;;;;;;;;;;;;;;;;6338596;28;19915;-78
2024/02/28 16:36:30;;;;;;;;;;;;;;;;;;6334690;28;19915;-78
2024/02/28 16:39:30;;;;;;;;;;;;;;;;;;6339823;28;20389;-77
2024/02/28 16:42:32;;;;;;;;;;;;;;;;;;6338952;28;20010;-77
2024/02/28 16:45:32;;;;;;;;;;;;;;;;;;6327981;28;19974;-77
2024/02/28 16:48:32;;;;;;;;;;;;;;;;;;6316657;28;20356;-77
2024/02/28 16:51:33;;;;;;;;;;;;;;;;;;6330743;28;19957;-77
2024/02/28 16:54:34;;;;;;;;;;;;;;;;;;6324433;28;19958;-77
2024/02/28 16:57:35;;;;;;;;;;;;;;;;;;6315583;28;19920;-77
2024/02/28 17:00:35;;;;;;;;;;;;;;;;;;6334292;28;19916;-77
2024/02/28 17:03:35;;;;;;;;;;;;;;;;;;6324355;28;20019;-77
2024/02/28 17:06:35;;;;;;;;;;;;;;;;;;6327151;28;19916;-77
2024/02/28 17:09:36;;;;;;;;;;;;;;;;;;6314135;28;19962;-77
2024/02/28 17:12:36;;;;;;;;;;;;;;;;;;6310484;27;19985;-77
2024/02/28 17:15:36;;;;;;;;;;;;;;;;;;6349990;27;19977;-78
2024/02/28 17:18:36;;;;;;;;;;;;;;;;;;6349690;27;19912;-77
2024/02/28 17:21:36;;;;;;;;;;;;;;;;;;6354383;27;19912;-78
2024/02/28 17:24:36;;;;;;;;;;;;;;;;;;6347231;28;19916;-75
2024/02/28 17:27:37;;;;;;;;;;;;;;;;;;6359340;27;20382;-76
2024/02/28 17:30:37;;;;;;;;;;;;;;;;;;6355898;27;19951;-77
2024/02/28 17:33:37;;;;;;;;;;;;;;;;;;6360428;27;20420;-77
2024/02/28 17:36:37;;;;;;;;;;;;;;;;;;6347070;27;19912;-79
2024/02/28 17:39:38;;;;;;;;;;;;;;;;;;6347254;27;19959;-77
2024/02/28 17:42:38;;;;;;;;;;;;;;;;;;6347423;28;20435;-75
2024/02/28 17:45:38;;;;;;;;;;;;;;;;;;6349200;27;20356;-74
2024/02/28 17:48:41;;;;;;;;;;;;;;;;;;6361181;27;20437;-75
2024/02/28 17:51:42;;;;;;;;;;;;;;;;;;6352125;27;19911;-77
2024/02/28 17:54:42;;;;;;;;;;;;;;;;;;6347103;28;19911;-77
2024/02/28 17:57:42;;;;;;;;;;;;;;;;;;6349784;27;19919;-75
2024/02/28 18:00:46;;;;;;;;;;;;;;;;;;6347047;28;19920;-77
2024/02/28 18:03:46;;;;;;;;;;;;;;;;;;6350526;27;19915;-76
2024/02/28 18:06:46;;;;;;;;;;;;;;;;;;6357102;27;19916;-77
2024/02/28 18:09:46;;;;;;;;;;;;;;;;;;6351782;28;19912;-77
2024/02/28 18:12:47;;;;;;;;;;;;;;;;;;6343499;27;19930;-77
2024/02/28 18:15:47;;;;;;;;;;;;;;;;;;6347183;27;19912;-77
2024/02/28 18:18:47;;;;;;;;;;;;;;;;;;6347720;28;19911;-77
2024/02/28 18:21:47;;;;;;;;;;;;;;;;;;6349530;28;19912;-77
2024/02/28 18:24:47;;;;;;;;;;;;;;;;;;6351039;28;19919;-77
2024/02/28 18:27:47;;;;;;;;;;;;;;;;;;6348891;28;19923;-78
2024/02/28 18:30:47;;;;;;;;;;;;;;;;;;6346867;27;19912;-77
2024/02/28 18:33:48;;;;;;;;;;;;;;;;;;6347054;27;19920;-78
2024/02/28 18:36:48;;;;;;;;;;;;;;;;;;6351529;27;20002;-77
2024/02/28 18:39:48;;;;;;;;;;;;;;;;;;6354841;27;19927;-78
2024/02/28 18:42:48;;;;;;;;;;;;;;;;;;6356752;27;20418;-77
2024/02/28 18:45:49;;;;;;;;;;;;;;;;;;6357235;27;20372;-77
2024/02/28 18:48:50;;;;;;;;;;;;;;;;;;6352966;27;20371;-79
2024/02/28 18:51:50;;;;;;;;;;;;;;;;;;6352757;27;20507;-77
2024/02/28 18:54:50;;;;;;;;;;;;;;;;;;6352291;27;20032;-78
2024/02/28 18:57:51;;;;;;;;;;;;;;;;;;6355707;27;20264;-77
2024/02/28 19:00:51;;;;;;;;;;;;;;;;;;6352458;27;19920;-77
2024/02/28 19:03:52;;;;;;;;;;;;;;;;;;6354481;27;20341;-77
2024/02/28 19:06:52;;;;;;;;;;;;;;;;;;6350761;27;19930;-77
2024/02/28 19:09:53;;;;;;;;;;;;;;;;;;6352422;27;19915;-77
2024/02/28 19:12:53;;;;;;;;;;;;;;;;;;6349055;27;19923;-77
2024/02/28 19:15:54;;;;;;;;;;;;;;;;;;6324977;28;19926;-77
2024/02/28 19:18:54;;;;;;;;;;;;;;;;;;6317300;28;20102;-77
2024/02/28 19:21:55;;;;;;;;;;;;;;;;;;6310483;28;20353;-77
2024/02/28 19:24:55;;;;;;;;;;;;;;;;;;6322704;28;20132;-77
2024/02/28 19:27:55;;;;;;;;;;;;;;;;;;6323298;28;19923;-77
2024/02/28 19:30:57;;;;;;;;;;;;;;;;;;6304439;28;19912;-78
2024/02/28 19:33:57;;;;;;;;;;;;;;;;;;6328497;28;20380;-77
2024/02/28 19:36:57;;;;;;;;;;;;;;;;;;6307079;28;19912;-77
2024/02/28 19:40:07;;;;;;;;;;;;;;;;;;6304039;28;20387;-77
2024/02/28 19:43:07;;;;;;;;;;;;;;;;;;6305982;28;19981;-78
2024/02/28 19:46:08;;;;;;;;;;;;;;;;;;6330065;28;19920;-77
2024/02/28 19:49:09;;;;;;;;;;;;;;;;;;6330930;28;20287;-77
2024/02/28 19:52:09;;;;;;;;;;;;;;;;;;6306456;28;19963;-83
2024/02/28 19:55:09;;;;;;;;;;;;;;;;;;6309627;28;20353;-83
2024/02/28 19:58:09;;;;;;;;;;;;;;;;;;6310047;28;20329;-83
2024/02/28 20:01:09;;;;;;;;;;;;;;;;;;6323514;28;20292;-83
2024/02/28 20:04:10;;;;;;;;;;;;;;;;;;6335268;28;20039;-83
2024/02/28 20:07:10;;;;;;;;;;;;;;;;;;6312421;28;20019;-83
2024/02/28 20:10:10;;;;;;;;;;;;;;;;;;6324665;28;19916;-82
2024/02/28 20:13:10;;;;;;;;;;;;;;;;;;6306242;28;19931;-83
2024/02/28 20:16:11;;;;;;;;;;;;;;;;;;6328294;28;19970;-82
2024/02/28 20:19:11;;;;;;;;;;;;;;;;;;6329224;28;19995;-83
2024/02/28 20:22:11;;;;;;;;;;;;;;;;;;6315641;28;20109;-83
2024/02/28 20:25:11;;;;;;;;;;;;;;;;;;6310186;28;20010;-83
2024/02/28 20:28:11;;;;;;;;;;;;;;;;;;6320092;28;19935;-83
2024/02/28 20:31:11;;;;;;;;;;;;;;;;;;6320252;28;19916;-83